Time;durP1;ratioP1;P1;durP2;ratioP2;P2;SDS_P1;SDS_P2;PMS_P1;PMS_P2;Temp;Humidity;BMP_temperature;BMP_pressure;BME280_temperature;BME280_humidity;BME280_pressure;Samples;Min_cycle;Max_cycle;Signal;HPM_P1;HPM_P2
2023/07/17 00:00:49;;;;;;;5.68;1.80;;;19.60;99.90;;;;;;5014660;28;20205;-74
2023/07/17 00:03:16;;;;;;;4.13;1.55;;;19.60;99.90;;;;;;5010113;28;20217;-74
2023/07/17 00:05:43;;;;;;;4.55;1.60;;;19.60;99.90;;;;;;5006133;28;20207;-73
2023/07/17 00:08:10;;;;;;;4.70;1.50;;;19.60;99.90;;;;;;4995510;28;20214;-74
2023/07/17 00:10:38;;;;;;;3.42;1.73;;;19.60;99.90;;;;;;5008993;28;20207;-73
2023/07/17 00:13:05;;;;;;;4.20;1.60;;;19.60;99.90;;;;;;4993548;28;20253;-73
2023/07/17 00:15:32;;;;;;;3.80;1.75;;;19.50;99.90;;;;;;5010379;28;20202;-73
2023/07/17 00:17:59;;;;;;;3.58;1.70;;;19.50;99.90;;;;;;5010156;28;20228;-73
2023/07/17 00:20:26;;;;;;;5.43;1.92;;;19.50;99.90;;;;;;5010547;28;20202;-73
2023/07/17 00:22:52;;;;;;;3.17;1.65;;;19.50;99.90;;;;;;5004825;28;20205;-73
2023/07/17 00:25:20;;;;;;;4.32;2.10;;;19.50;99.90;;;;;;5008758;28;20734;-73
2023/07/17 00:27:47;;;;;;;4.07;1.75;;;19.40;99.90;;;;;;5004996;28;20219;-73
2023/07/17 00:30:14;;;;;;;4.00;1.98;;;19.40;99.90;;;;;;5009583;28;20199;-75
2023/07/17 00:32:41;;;;;;;3.40;1.80;;;19.40;99.90;;;;;;5007494;28;20703;-73
2023/07/17 00:35:09;;;;;;;4.28;1.50;;;19.30;99.90;;;;;;5009379;28;20260;-74
2023/07/17 00:37:36;;;;;;;4.25;2.03;;;19.30;99.90;;;;;;5018763;28;20227;-74
2023/07/17 00:40:04;;;;;;;4.38;1.70;;;19.30;99.90;;;;;;5012451;28;20231;-75
2023/07/17 00:42:31;;;;;;;3.33;1.83;;;19.30;99.90;;;;;;4996037;28;20268;-74
2023/07/17 00:44:58;;;;;;;3.45;1.73;;;19.20;99.90;;;;;;5012516;28;20203;-73
2023/07/17 00:47:25;;;;;;;6.15;2.13;;;19.20;99.90;;;;;;5008098;28;20633;-74
2023/07/17 00:49:52;;;;;;;3.83;1.80;;;19.20;99.90;;;;;;5010883;28;20225;-75
2023/07/17 00:52:19;;;;;;;3.72;1.90;;;19.10;99.90;;;;;;5017205;28;20279;-73
2023/07/17 00:54:46;;;;;;;4.03;2.00;;;19.10;99.90;;;;;;4994781;28;20269;-74
2023/07/17 00:57:17;;;;;;;5.95;1.92;;;19.00;99.90;;;;;;5006467;28;20225;-75
2023/07/17 00:59:44;;;;;;;3.70;1.85;;;19.00;99.90;;;;;;4998411;28;20203;-73
2023/07/17 01:02:13;;;;;;;5.88;2.20;;;18.90;99.90;;;;;;4997937;28;20744;-73
2023/07/17 01:04:45;;;;;;;3.00;2.03;;;18.90;99.90;;;;;;5004251;28;20203;-75
2023/07/17 01:07:13;;;;;;;3.50;2.30;;;18.90;99.90;;;;;;5008712;28;20210;-75
2023/07/17 01:09:40;;;;;;;3.47;2.30;;;18.90;99.90;;;;;;5006231;28;20268;-74
2023/07/17 01:12:08;;;;;;;3.58;1.85;;;18.90;99.90;;;;;;5006695;28;20215;-73
2023/07/17 01:14:34;;;;;;;5.20;1.73;;;18.90;99.90;;;;;;5011720;28;20217;-73
2023/07/17 01:17:01;;;;;;;5.65;2.28;;;18.90;99.90;;;;;;5006775;28;20223;-75
2023/07/17 01:19:28;;;;;;;3.58;2.13;;;18.90;99.90;;;;;;5011616;28;20260;-74
2023/07/17 01:21:59;;;;;;;2.88;1.90;;;18.80;99.90;;;;;;5010418;28;20202;-73
2023/07/17 01:24:26;;;;;;;2.95;1.90;;;18.80;99.90;;;;;;5011312;28;20573;-75
2023/07/17 01:26:54;;;;;;;4.10;2.10;;;18.80;99.90;;;;;;5006672;28;20218;-74
2023/07/17 01:29:21;;;;;;;3.65;1.95;;;18.70;99.90;;;;;;5010842;28;20203;-73
2023/07/17 01:31:48;;;;;;;4.00;2.45;;;18.70;99.90;;;;;;5010610;28;20213;-73
2023/07/17 01:34:15;;;;;;;3.88;2.25;;;18.70;99.90;;;;;;5000673;28;20208;-74
2023/07/17 01:36:41;;;;;;;2.72;1.75;;;18.60;99.90;;;;;;5010704;28;20721;-73
2023/07/17 01:39:08;;;;;;;4.07;2.47;;;18.60;99.90;;;;;;5001408;28;20230;-73
2023/07/17 01:41:35;;;;;;;2.67;2.20;;;18.60;99.90;;;;;;5010808;28;20211;-74
2023/07/17 01:44:02;;;;;;;4.78;2.42;;;18.50;99.90;;;;;;5028655;28;20623;-75
2023/07/17 01:46:28;;;;;;;5.38;2.13;;;18.50;99.90;;;;;;5021956;28;20198;-73
2023/07/17 01:48:55;;;;;;;4.57;2.10;;;18.50;99.90;;;;;;5030459;28;20260;-74
2023/07/17 01:51:22;;;;;;;5.13;2.10;;;18.40;99.90;;;;;;5030464;28;20198;-74
2023/07/17 01:53:49;;;;;;;5.07;2.50;;;18.30;99.90;;;;;;5030788;28;20205;-74
2023/07/17 01:56:16;;;;;;;5.38;2.33;;;18.30;99.90;;;;;;5030710;28;20697;-73
2023/07/17 01:58:43;;;;;;;5.80;2.10;;;18.20;99.90;;;;;;5036842;28;20229;-74
2023/07/17 02:01:10;;;;;;;3.78;2.15;;;18.10;99.90;;;;;;5013166;28;20202;-73
2023/07/17 02:03:37;;;;;;;4.90;2.58;;;18.10;99.90;;;;;;5030617;28;20260;-75
2023/07/17 02:06:05;;;;;;;4.45;2.53;;;18.00;99.90;;;;;;5030219;28;20679;-74
2023/07/17 02:08:33;;;;;;;3.63;2.50;;;17.90;99.90;;;;;;5020052;28;20938;-75
2023/07/17 02:11:00;;;;;;;4.40;2.38;;;17.90;99.90;;;;;;5024397;28;20253;-74
2023/07/17 02:13:27;;;;;;;5.35;2.53;;;17.80;99.90;;;;;;5029904;28;20218;-74
2023/07/17 02:15:53;;;;;;;5.82;2.40;;;17.70;99.90;;;;;;5030013;28;20677;-74
2023/07/17 02:18:20;;;;;;;4.95;2.40;;;17.70;99.90;;;;;;5030211;28;20233;-76
2023/07/17 02:20:52;;;;;;;6.47;2.75;;;17.70;99.90;;;;;;5030387;28;20209;-74
2023/07/17 02:23:19;;;;;;;5.38;2.70;;;17.60;99.90;;;;;;5029515;28;20209;-74
2023/07/17 02:25:46;;;;;;;3.28;2.38;;;17.60;99.90;;;;;;5029773;28;20198;-73
2023/07/17 02:28:15;;;;;;;4.40;2.43;;;17.50;99.90;;;;;;5030575;28;20222;-73
2023/07/17 02:30:42;;;;;;;4.97;2.57;;;17.40;99.90;;;;;;5012493;28;20248;-74
2023/07/17 02:33:09;;;;;;;5.37;2.73;;;17.40;99.90;;;;;;5010742;28;20202;-74
2023/07/17 02:35:36;;;;;;;4.07;2.57;;;17.30;99.90;;;;;;5030062;28;20213;-74
2023/07/17 02:38:03;;;;;;;4.00;2.33;;;17.30;99.90;;;;;;5030023;28;20225;-73
2023/07/17 02:40:29;;;;;;;4.00;2.53;;;17.30;99.90;;;;;;5029257;28;20197;-75
2023/07/17 02:42:56;;;;;;;8.27;2.83;;;17.20;99.90;;;;;;5030080;28;20726;-74
2023/07/17 02:45:23;;;;;;;4.13;2.90;;;17.20;99.90;;;;;;5028711;28;20202;-72
2023/07/17 02:47:50;;;;;;;8.27;3.50;;;17.10;99.90;;;;;;5029901;28;20292;-73
2023/07/17 02:50:17;;;;;;;4.70;2.77;;;17.00;99.90;;;;;;5029390;28;20242;-74
2023/07/17 02:52:44;;;;;;;5.93;3.33;;;17.00;99.90;;;;;;5030225;28;20273;-77
2023/07/17 02:55:10;;;;;;;6.37;2.67;;;17.00;99.90;;;;;;5029449;28;20260;-73
2023/07/17 02:57:37;;;;;;;8.93;3.03;;;17.00;99.90;;;;;;5027731;28;20234;-75
2023/07/17 03:00:14;;;;;;;7.27;3.57;;;16.90;99.90;;;;;;5020374;28;20240;-74
2023/07/17 03:02:42;;;;;;;5.63;2.63;;;16.90;99.90;;;;;;5029404;28;20689;-74
2023/07/17 03:05:10;;;;;;;3.97;2.73;;;16.80;99.90;;;;;;5022621;28;20748;-74
2023/07/17 03:07:43;;;;;;;5.97;2.90;;;16.80;99.90;;;;;;5028179;28;20209;-73
2023/07/17 03:10:12;;;;;;;5.93;3.63;;;16.80;99.90;;;;;;5027823;28;20259;-75
2023/07/17 03:12:38;;;;;;;7.40;2.90;;;16.70;99.90;;;;;;5025804;28;20218;-75
2023/07/17 03:15:06;;;;;;;8.37;3.30;;;16.70;99.90;;;;;;5011619;28;20206;-75
2023/07/17 03:17:33;;;;;;;4.40;3.00;;;16.70;99.90;;;;;;5028699;28;20206;-74
2023/07/17 03:20:01;;;;;;;8.90;3.27;;;16.50;99.90;;;;;;5011429;28;20233;-73
2023/07/17 03:22:28;;;;;;;5.93;2.67;;;16.60;99.90;;;;;;5029225;28;20283;-73
2023/07/17 03:24:55;;;;;;;6.20;3.00;;;16.60;99.90;;;;;;5028440;28;20290;-74
2023/07/17 03:27:22;;;;;;;6.63;2.97;;;16.60;99.90;;;;;;5028462;28;20271;-75
2023/07/17 03:29:49;;;;;;;8.50;2.77;;;16.40;99.90;;;;;;5030516;28;20213;-72
2023/07/17 03:32:16;;;;;;;4.63;3.10;;;16.70;99.90;;;;;;5029096;28;20323;-74
2023/07/17 03:34:42;;;;;;;3.47;2.50;;;16.50;99.90;;;;;;5029144;28;20237;-75
2023/07/17 03:37:10;;;;;;;6.03;2.70;;;16.80;99.90;;;;;;5028935;28;20202;-76
2023/07/17 03:39:36;;;;;;;7.27;3.07;;;16.50;99.90;;;;;;5024136;28;20244;-73
2023/07/17 03:42:10;;;;;;;4.47;2.67;;;16.40;99.90;;;;;;5024476;28;20231;-73
2023/07/17 03:44:40;;;;;;;4.10;3.07;;;16.50;99.90;;;;;;5003010;28;20269;-74
2023/07/17 03:47:07;;;;;;;5.13;2.60;;;16.50;99.90;;;;;;5009270;28;20229;-73
2023/07/17 03:49:34;;;;;;;6.47;2.77;;;16.50;99.90;;;;;;5008396;28;20293;-74
2023/07/17 03:52:02;;;;;;;8.70;3.30;;;16.50;99.90;;;;;;5008888;28;20207;-74
2023/07/17 03:54:28;;;;;;;6.53;2.97;;;16.40;99.90;;;;;;5008880;28;20214;-74
2023/07/17 03:56:55;;;;;;;5.27;3.60;;;16.40;99.90;;;;;;5008545;28;20219;-73
2023/07/17 03:59:26;;;;;;;7.23;3.60;;;16.40;99.90;;;;;;5008000;28;20242;-74
2023/07/17 04:01:53;;;;;;;5.43;3.20;;;16.40;99.90;;;;;;5009381;28;20824;-76
2023/07/17 04:04:20;;;;;;;7.63;2.80;;;16.40;99.90;;;;;;4991278;28;20241;-77
2023/07/17 04:06:47;;;;;;;7.03;3.20;;;16.40;99.90;;;;;;5009143;28;20236;-74
2023/07/17 04:09:15;;;;;;;4.00;2.97;;;16.30;99.90;;;;;;5008170;28;20226;-77
2023/07/17 04:11:45;;;;;;;9.33;3.37;;;16.40;99.90;;;;;;5003600;28;20250;-74
2023/07/17 04:14:13;;;;;;;5.13;3.47;;;16.60;99.90;;;;;;5012421;28;20302;-74
2023/07/17 04:16:40;;;;;;;5.90;3.50;;;16.20;99.90;;;;;;4991462;28;20591;-74
2023/07/17 04:19:07;;;;;;;5.57;3.50;;;16.20;99.90;;;;;;5011786;28;20328;-76
2023/07/17 04:21:34;;;;;;;7.13;3.50;;;16.30;99.90;;;;;;5012435;28;20635;-72
2023/07/17 04:24:01;;;;;;;6.90;3.13;;;16.40;99.90;;;;;;4999511;28;20282;-74
2023/07/17 04:26:27;;;;;;;7.43;3.30;;;16.50;99.90;;;;;;5008994;28;20309;-76
2023/07/17 04:28:54;;;;;;;6.07;2.90;;;16.40;99.90;;;;;;5011932;28;20220;-73
2023/07/17 04:31:21;;;;;;;5.00;3.07;;;16.50;99.90;;;;;;5012861;28;20277;-73
2023/07/17 04:33:48;;;;;;;7.47;3.20;;;16.50;99.90;;;;;;5003021;28;20721;-73
2023/07/17 04:36:15;;;;;;;7.93;3.57;;;16.50;99.90;;;;;;5012007;28;20198;-73
2023/07/17 04:38:42;;;;;;;6.53;3.00;;;16.50;99.90;;;;;;5009194;28;20223;-74
2023/07/17 04:41:09;;;;;;;8.30;3.50;;;16.60;99.90;;;;;;5006847;28;20214;-75
2023/07/17 04:43:36;;;;;;;10.13;3.27;;;16.70;99.90;;;;;;5026269;28;20253;-74
2023/07/17 04:46:03;;;;;;;7.50;3.07;;;16.60;99.90;;;;;;5031921;28;20252;-74
2023/07/17 04:48:29;;;;;;;8.97;3.60;;;16.60;99.90;;;;;;5014074;28;20201;-73
2023/07/17 04:50:57;;;;;;;6.23;3.10;;;16.60;99.90;;;;;;5032300;28;20545;-73
2023/07/17 04:53:24;;;;;;;7.07;3.30;;;16.70;99.90;;;;;;5027922;28;20666;-76
2023/07/17 04:55:51;;;;;;;9.07;3.60;;;16.80;99.90;;;;;;5030856;28;20597;-74
2023/07/17 04:58:18;;;;;;;6.83;3.23;;;16.80;99.90;;;;;;5028330;28;20283;-73
2023/07/17 05:00:47;;;;;;;6.20;3.17;;;16.70;99.90;;;;;;5011722;28;20194;-77
2023/07/17 05:03:14;;;;;;;5.37;3.00;;;16.80;99.90;;;;;;5031563;28;20237;-74
2023/07/17 05:05:47;;;;;;;5.63;2.90;;;16.80;99.90;;;;;;5031471;28;20198;-76
2023/07/17 05:08:14;;;;;;;8.00;3.30;;;16.80;99.90;;;;;;5030825;28;20725;-74
2023/07/17 05:10:40;;;;;;;5.80;3.20;;;16.80;99.90;;;;;;5030645;28;20213;-73
2023/07/17 05:13:07;;;;;;;8.83;3.60;;;16.90;99.90;;;;;;5030103;28;20512;-78
2023/07/17 05:15:34;;;;;;;7.23;3.27;;;17.00;99.90;;;;;;5031499;28;20732;-75
2023/07/17 05:18:01;;;;;;;7.20;3.33;;;17.00;99.90;;;;;;5030957;28;20688;-73
2023/07/17 05:20:28;;;;;;;4.95;3.20;;;17.00;99.90;;;;;;5010870;28;20210;-75
2023/07/17 05:22:55;;;;;;;5.77;3.17;;;17.00;99.90;;;;;;5002052;28;20198;-73
2023/07/17 05:25:22;;;;;;;6.40;2.72;;;17.10;99.90;;;;;;5030772;28;20202;-74
2023/07/17 05:27:50;;;;;;;9.32;3.58;;;17.10;99.90;;;;;;5020142;28;20319;-76
2023/07/17 05:30:17;;;;;;;9.23;3.47;;;17.10;99.90;;;;;;5031199;28;20704;-75
2023/07/17 05:32:44;;;;;;;7.32;3.17;;;17.10;99.90;;;;;;5009320;28;20272;-75
2023/07/17 05:35:11;;;;;;;5.30;3.20;;;17.20;99.90;;;;;;5023422;28;20293;-76
2023/07/17 05:37:38;;;;;;;7.55;3.22;;;17.30;99.90;;;;;;5020766;28;20198;-75
2023/07/17 05:40:05;;;;;;;9.40;3.60;;;17.30;99.90;;;;;;5027599;28;20751;-75
2023/07/17 05:42:32;;;;;;;6.40;3.78;;;17.70;99.90;;;;;;5022749;28;20230;-73
2023/07/17 05:44:59;;;;;;;6.30;3.05;;;18.40;99.90;;;;;;5000727;28;20207;-74
2023/07/17 05:47:26;;;;;;;6.93;3.10;;;19.10;99.90;;;;;;4992188;28;20608;-75
2023/07/17 05:49:52;;;;;;;8.07;3.10;;;19.80;99.90;;;;;;5007439;28;20593;-74
2023/07/17 05:52:19;;;;;;;5.38;3.20;;;20.40;99.90;;;;;;5004285;28;20207;-74
2023/07/17 05:54:46;;;;;;;5.95;3.03;;;20.80;99.90;;;;;;5007391;28;20265;-74
2023/07/17 05:57:13;;;;;;;8.75;3.45;;;21.30;99.90;;;;;;5009178;28;20210;-75
2023/07/17 05:59:40;;;;;;;4.72;2.65;;;21.70;99.90;;;;;;4995836;28;20266;-77
2023/07/17 06:02:07;;;;;;;7.70;3.50;;;22.20;99.90;;;;;;5002569;28;20214;-75
2023/07/17 06:04:34;;;;;;;7.43;3.35;;;22.20;99.90;;;;;;5010357;28;20206;-75
2023/07/17 06:07:01;;;;;;;6.55;3.00;;;22.20;99.90;;;;;;5008902;28;20206;-77
2023/07/17 06:09:29;;;;;;;9.13;3.50;;;22.40;99.90;;;;;;5005329;28;20682;-76
2023/07/17 06:11:56;;;;;;;8.00;3.53;;;22.30;99.90;;;;;;5001288;28;20284;-77
2023/07/17 06:14:23;;;;;;;9.52;3.45;;;22.00;99.90;;;;;;5007348;28;20210;-75
2023/07/17 06:16:49;;;;;;;6.85;3.67;;;21.50;99.90;;;;;;5006146;28;20269;-75
2023/07/17 06:19:16;;;;;;;8.40;3.67;;;21.10;99.90;;;;;;5005996;28;20575;-74
2023/07/17 06:21:43;;;;;;;8.32;3.58;;;21.40;99.90;;;;;;5010773;28;20195;-76
2023/07/17 06:24:12;;;;;;;12.75;4.00;;;21.80;99.90;;;;;;5004676;28;20217;-74
2023/07/17 06:26:39;;;;;;;10.02;3.80;;;21.90;99.90;;;;;;5009692;28;20210;-74
2023/07/17 06:29:06;;;;;;;8.88;4.00;;;22.10;99.90;;;;;;4996714;28;20217;-74
2023/07/17 06:31:33;;;;;;;12.23;4.25;;;22.20;99.90;;;;;;5010448;28;20209;-76
2023/07/17 06:34:00;;;;;;;9.93;4.35;;;22.50;99.90;;;;;;5007028;28;20226;-75
2023/07/17 06:36:30;;;;;;;10.07;4.25;;;22.20;99.90;;;;;;5008733;28;20481;-76
2023/07/17 06:38:56;;;;;;;9.93;4.53;;;22.00;99.90;;;;;;4983062;28;20243;-76
2023/07/17 06:41:23;;;;;;;10.15;4.93;;;22.00;99.90;;;;;;5003911;28;20682;-76
2023/07/17 06:43:50;;;;;;;10.30;4.10;;;21.90;99.90;;;;;;5006955;28;20243;-75
2023/07/17 06:46:17;;;;;;;11.27;4.75;;;21.60;99.90;;;;;;4987643;28;20206;-76
2023/07/17 06:48:45;;;;;;;15.23;4.78;;;21.40;99.90;;;;;;5002854;28;20275;-75
2023/07/17 06:51:12;;;;;;;12.05;5.03;;;21.00;99.90;;;;;;4987964;28;20264;-75
2023/07/17 06:53:39;;;;;;;11.80;4.78;;;20.70;99.90;;;;;;5008442;28;20210;-74
2023/07/17 06:56:06;;;;;;;11.30;4.95;;;20.60;99.90;;;;;;5003474;28;20222;-76
2023/07/17 06:58:33;;;;;;;11.85;4.25;;;20.90;99.90;;;;;;5006168;28;20411;-76
2023/07/17 07:01:00;;;;;;;12.52;4.88;;;20.90;99.90;;;;;;4989745;28;20305;-75
2023/07/17 07:03:28;;;;;;;10.10;4.60;;;21.00;99.90;;;;;;5000679;28;20589;-75
2023/07/17 07:06:00;;;;;;;10.40;4.35;;;21.20;99.90;;;;;;5002168;28;20207;-76
2023/07/17 07:08:30;;;;;;;9.85;5.13;;;21.40;99.90;;;;;;4990721;28;20213;-77
2023/07/17 07:10:58;;;;;;;13.80;4.57;;;21.20;99.90;;;;;;5008958;28;20647;-75
2023/07/17 07:13:26;;;;;;;9.77;4.80;;;21.20;99.90;;;;;;4998900;28;20663;-74
2023/07/17 07:15:53;;;;;;;8.65;4.78;;;21.20;99.90;;;;;;5004598;28;20210;-74
2023/07/17 07:18:21;;;;;;;10.93;5.15;;;21.20;99.90;;;;;;5004614;28;20726;-74
2023/07/17 07:20:53;;;;;;;12.52;5.00;;;21.80;99.90;;;;;;4995097;28;20293;-75
2023/07/17 07:23:20;;;;;;;11.18;4.82;;;21.90;99.90;;;;;;5003963;28;20206;-76
2023/07/17 07:25:47;;;;;;;10.13;5.15;;;21.60;99.90;;;;;;4981363;28;20215;-76
2023/07/17 07:28:14;;;;;;;10.32;4.80;;;21.60;99.90;;;;;;4984976;28;20308;-75
2023/07/17 07:30:41;;;;;;;12.05;4.50;;;21.40;99.90;;;;;;4997974;28;20194;-75
2023/07/17 07:33:07;;;;;;;9.55;5.22;;;21.30;99.90;;;;;;5011971;28;20206;-76
2023/07/17 07:35:34;;;;;;;14.48;4.97;;;21.40;99.90;;;;;;5008915;28;20260;-75
2023/07/17 07:38:01;;;;;;;8.48;4.45;;;21.70;99.90;;;;;;5008995;28;20725;-75
2023/07/17 07:40:28;;;;;;;11.43;4.90;;;22.10;99.90;;;;;;5008548;28;20233;-76
2023/07/17 07:42:55;;;;;;;8.93;4.57;;;22.50;99.90;;;;;;5002959;28;20230;-74
2023/07/17 07:45:22;;;;;;;8.77;4.60;;;22.90;99.90;;;;;;5004594;28;20571;-76
2023/07/17 07:47:49;;;;;;;10.35;4.97;;;23.40;99.90;;;;;;5008641;28;20686;-75
2023/07/17 07:50:16;;;;;;;8.98;4.63;;;23.70;99.90;;;;;;4984713;28;20231;-77
2023/07/17 07:52:43;;;;;;;8.27;4.38;;;23.70;99.90;;;;;;5000098;28;20207;-75
2023/07/17 07:55:10;;;;;;;10.55;4.25;;;23.60;99.90;;;;;;5004134;28;20213;-77
2023/07/17 07:57:37;;;;;;;7.60;4.28;;;23.90;99.90;;;;;;4992999;28;20273;-75
2023/07/17 08:00:07;;;;;;;7.95;4.10;;;24.00;99.90;;;;;;5007314;28;20727;-75
2023/07/17 08:02:34;;;;;;;8.60;4.80;;;24.30;99.90;;;;;;5002531;28;20574;-76
2023/07/17 08:05:00;;;;;;;9.07;4.60;;;24.30;99.90;;;;;;4999403;28;20553;-75
2023/07/17 08:07:27;;;;;;;7.28;3.90;;;24.30;99.90;;;;;;5002179;28;20511;-75
2023/07/17 08:09:54;;;;;;;7.45;3.83;;;24.00;99.90;;;;;;5002011;28;20198;-75
2023/07/17 08:12:21;;;;;;;11.82;4.38;;;24.10;99.90;;;;;;5008414;28;20245;-75
2023/07/17 08:14:49;;;;;;;10.60;4.10;;;24.20;99.90;;;;;;4990491;28;20663;-75
2023/07/17 08:17:16;;;;;;;6.43;3.65;;;24.30;99.90;;;;;;5008215;28;20662;-73
2023/07/17 08:19:43;;;;;;;8.02;4.45;;;24.60;99.90;;;;;;5008829;28;20210;-75
2023/07/17 08:22:10;;;;;;;11.48;4.28;;;24.60;99.90;;;;;;5008700;28;20554;-75
2023/07/17 08:24:37;;;;;;;10.52;4.47;;;24.40;99.90;;;;;;4990759;28;20237;-75
2023/07/17 08:27:05;;;;;;;6.88;3.92;;;24.00;99.90;;;;;;5008765;28;20210;-73
2023/07/17 08:29:32;;;;;;;7.68;4.32;;;24.00;99.90;;;;;;5009086;28;20202;-74
2023/07/17 08:31:59;;;;;;;9.35;4.47;;;23.80;99.90;;;;;;5003707;28;20221;-74
2023/07/17 08:34:27;;;;;;;6.82;3.90;;;23.90;99.90;;;;;;4988514;28;20203;-73
2023/07/17 08:36:54;;;;;;;8.82;4.10;;;24.20;99.90;;;;;;5004440;28;20208;-75
2023/07/17 08:39:21;;;;;;;10.00;3.95;;;24.50;99.90;;;;;;4991342;28;20284;-74
2023/07/17 08:41:49;;;;;;;7.07;3.70;;;24.80;99.90;;;;;;5003595;28;20217;-75
2023/07/17 08:44:16;;;;;;;5.53;3.55;;;24.80;99.90;;;;;;5021787;28;20889;-73
2023/07/17 08:46:46;;;;;;;5.53;3.50;;;25.20;99.90;;;;;;5021388;28;20267;-75
2023/07/17 08:49:18;;;;;;;7.70;3.83;;;25.40;99.90;;;;;;5027469;28;20332;-74
2023/07/17 08:51:51;;;;;;;8.60;3.55;;;25.20;99.90;;;;;;5001370;28;20206;-74
2023/07/17 08:54:18;;;;;;;9.52;3.72;;;25.30;99.90;;;;;;5019110;28;20280;-75
2023/07/17 08:57:01;;;;;;;10.25;3.72;;;25.20;99.90;;;;;;5028737;28;20221;-74
2023/07/17 08:59:30;;;;;;;5.53;3.20;;;24.90;99.90;;;;;;5013411;28;20225;-74
2023/07/17 09:01:57;;;;;;;4.85;3.13;;;25.00;99.90;;;;;;5031105;28;20224;-73
2023/07/17 09:04:25;;;;;;;6.22;3.20;;;25.10;99.90;;;;;;5029899;28;20260;-74
2023/07/17 09:06:52;;;;;;;6.93;2.90;;;24.90;99.90;;;;;;5029203;28;20665;-74
2023/07/17 09:09:20;;;;;;;7.88;3.28;;;24.70;99.90;;;;;;5024594;28;20587;-76
2023/07/17 09:11:57;;;;;;;10.80;3.70;;;24.90;99.90;;;;;;5028465;28;20229;-75
2023/07/17 09:14:24;;;;;;;6.30;3.45;;;24.90;99.90;;;;;;5030978;28;20209;-74
2023/07/17 09:17:01;;;;;;;6.05;3.60;;;25.10;99.90;;;;;;5027765;28;20624;-77
2023/07/17 09:19:29;;;;;;;6.15;3.20;;;25.70;99.90;;;;;;5026194;28;20221;-75
2023/07/17 09:22:01;;;;;;;7.10;3.03;;;26.00;99.90;;;;;;5030149;28;20205;-75
2023/07/17 09:24:29;;;;;;;6.45;3.15;;;26.30;99.90;;;;;;5029363;28;20682;-75
2023/07/17 09:26:56;;;;;;;5.90;3.08;;;26.40;99.90;;;;;;5018959;28;20249;-74
2023/07/17 09:29:24;;;;;;;5.88;2.90;;;26.10;99.90;;;;;;5025484;28;20202;-75
2023/07/17 09:31:51;;;;;;;6.80;3.35;;;25.90;99.90;;;;;;5027567;28;20206;-75
2023/07/17 09:34:18;;;;;;;7.53;2.65;;;25.40;99.90;;;;;;5031104;28;20251;-77
2023/07/17 09:36:50;;;;;;;8.00;3.05;;;25.20;99.90;;;;;;5031527;28;20210;-76
2023/07/17 09:39:17;;;;;;;9.55;3.67;;;24.90;99.90;;;;;;5026475;28;20217;-74
2023/07/17 09:41:44;;;;;;;8.60;3.15;;;24.70;99.90;;;;;;5012318;28;20238;-74
2023/07/17 09:44:17;;;;;;;8.10;3.10;;;24.50;99.90;;;;;;5012964;28;20234;-74
2023/07/17 09:46:44;;;;;;;7.82;2.78;;;24.30;99.90;;;;;;5007323;28;20207;-73
2023/07/17 09:49:12;;;;;;;11.27;3.45;;;24.10;99.90;;;;;;4999884;28;20298;-75
2023/07/17 09:51:39;;;;;;;7.50;3.00;;;23.60;99.90;;;;;;5018564;28;20213;-78
2023/07/17 09:54:05;;;;;;;5.38;3.10;;;23.20;99.90;;;;;;5002874;28;20202;-79
2023/07/17 09:56:33;;;;;;;8.00;3.33;;;22.90;99.90;;;;;;5006080;28;20223;-75
2023/07/17 09:59:20;;;;;;;7.63;3.28;;;22.80;99.90;;;;;;5008941;28;20207;-77
2023/07/17 10:01:52;;;;;;;7.78;2.95;;;22.90;99.90;;;;;;5016195;28;20225;-77
2023/07/17 10:04:26;;;;;;;5.60;3.15;;;23.10;99.90;;;;;;5018244;28;20206;-76
2023/07/17 10:06:55;;;;;;;5.80;3.10;;;23.40;99.90;;;;;;5013780;28;20265;-75
2023/07/17 10:09:22;;;;;;;5.97;2.70;;;23.80;99.90;;;;;;4998189;28;20206;-75
2023/07/17 10:11:48;;;;;;;6.50;2.53;;;24.30;99.90;;;;;;5001175;28;20950;-74
2023/07/17 10:14:16;;;;;;;6.07;2.30;;;24.50;99.90;;;;;;5010490;28;20211;-74
2023/07/17 10:16:42;;;;;;;7.13;2.67;;;24.60;99.90;;;;;;5010252;28;20202;-75
2023/07/17 10:19:09;;;;;;;4.57;2.05;;;24.50;99.90;;;;;;5007842;28;20304;-75
2023/07/17 10:21:55;;;;;;;7.63;2.60;;;24.20;99.90;;;;;;5007842;28;20234;-75
2023/07/17 10:24:25;;;;;;;3.72;1.70;;;23.70;99.90;;;;;;5008976;28;20699;-75
2023/07/17 10:26:57;;;;;;;3.10;1.60;;;23.20;99.90;;;;;;5005587;28;20211;-77
2023/07/17 10:29:50;;;;;;;3.13;1.60;;;22.70;99.90;;;;;;5006732;28;20203;-76
2023/07/17 10:32:18;;;;;;;3.10;1.60;;;22.50;99.90;;;;;;5008229;28;20198;-75
2023/07/17 10:34:53;;;;;;;2.60;1.60;;;22.20;99.90;;;;;;5002655;28;20207;-75
2023/07/17 10:37:32;;;;;;;4.30;2.05;;;22.10;99.90;;;;;;4992452;28;20214;-75
2023/07/17 10:40:06;;;;;;;4.05;2.03;;;22.20;99.90;;;;;;5009681;28;20694;-77
2023/07/17 10:42:34;;;;;;;5.05;2.03;;;22.20;99.90;;;;;;5007694;28;20229;-75
2023/07/17 10:45:11;;;;;;;5.80;2.10;;;22.10;99.90;;;;;;5003787;28;20207;-74
2023/07/17 10:47:38;;;;;;;5.93;2.75;;;21.90;99.90;;;;;;5005111;28;20249;-75
2023/07/17 10:50:06;;;;;;;6.28;3.17;;;21.70;99.90;;;;;;5008437;28;20258;-75
2023/07/17 10:52:36;;;;;;;5.47;2.78;;;21.30;99.90;;;;;;5009522;28;20214;-75
2023/07/17 10:55:05;;;;;;;7.50;2.85;;;21.20;99.90;;;;;;4989367;28;20202;-75
2023/07/17 10:57:32;;;;;;;9.60;3.28;;;20.90;99.90;;;;;;5008690;28;20222;-75
2023/07/17 10:59:59;;;;;;;5.63;2.92;;;20.50;99.90;;;;;;5002751;28;20218;-75
2023/07/17 11:02:26;;;;;;;7.18;2.53;;;20.30;99.90;;;;;;4994288;28;20210;-77
2023/07/17 11:04:58;;;;;;;6.68;2.50;;;20.20;99.90;;;;;;5009171;28;20639;-77
2023/07/17 11:07:25;;;;;;;5.38;3.00;;;19.90;99.90;;;;;;4989435;28;20607;-77
2023/07/17 11:09:51;;;;;;;5.57;3.10;;;19.90;99.90;;;;;;5005498;28;20211;-77
2023/07/17 11:12:18;;;;;;;7.30;2.97;;;19.80;99.90;;;;;;5002134;28;20231;-76
2023/07/17 11:14:50;;;;;;;7.53;2.83;;;20.00;99.90;;;;;;5003056;28;20210;-75
2023/07/17 11:17:17;;;;;;;4.20;2.75;;;20.10;99.90;;;;;;5005558;28;20238;-75
2023/07/17 11:19:44;;;;;;;7.70;2.80;;;20.00;99.90;;;;;;5008462;28;20206;-78
2023/07/17 11:22:13;;;;;;;4.72;2.70;;;20.10;99.90;;;;;;5004151;28;20221;-75
2023/07/17 11:24:39;;;;;;;4.78;2.72;;;20.30;99.90;;;;;;5007252;28;20214;-77
2023/07/17 11:27:06;;;;;;;5.63;2.80;;;20.50;99.90;;;;;;5007134;28;20226;-75
2023/07/17 11:29:40;;;;;;;4.63;2.33;;;20.70;99.90;;;;;;5006404;28;20202;-76
2023/07/17 11:32:07;;;;;;;7.03;2.70;;;21.00;99.90;;;;;;5007617;28;20515;-76
2023/07/17 11:34:36;;;;;;;4.68;2.65;;;21.40;99.90;;;;;;5007020;28;20296;-77
2023/07/17 11:37:03;;;;;;;2.75;2.03;;;21.80;99.90;;;;;;5008456;28;20261;-74
2023/07/17 11:39:32;;;;;;;3.55;2.00;;;22.20;99.90;;;;;;5009241;28;20624;-75
2023/07/17 11:42:01;;;;;;;3.47;2.35;;;22.60;99.90;;;;;;4995400;28;20234;-77
2023/07/17 11:44:29;;;;;;;3.90;1.90;;;22.70;99.90;;;;;;5027456;28;20229;-77
2023/07/17 11:47:03;;;;;;;5.43;2.75;;;22.90;99.90;;;;;;5026507;28;20312;-76
2023/07/17 11:49:32;;;;;;;6.32;2.85;;;22.80;99.90;;;;;;5024806;28;20677;-75
2023/07/17 11:51:59;;;;;;;5.05;2.25;;;22.70;99.90;;;;;;5008574;28;20210;-75
2023/07/17 11:54:40;;;;;;;5.75;2.50;;;22.40;99.90;;;;;;5027547;28;20267;-77
2023/07/17 11:57:07;;;;;;;5.95;2.72;;;22.00;99.90;;;;;;5019639;28;20230;-76
2023/07/17 11:59:34;;;;;;;6.10;2.63;;;21.70;99.90;;;;;;5023439;28;20343;-77
2023/07/17 12:02:01;;;;;;;3.67;1.90;;;21.50;99.90;;;;;;5027880;28;20222;-76
2023/07/17 12:04:33;;;;;;;3.50;2.00;;;21.10;99.90;;;;;;5020644;28;20549;-76
2023/07/17 12:07:01;;;;;;;4.45;1.92;;;20.70;99.90;;;;;;5027046;28;20206;-75
2023/07/17 12:09:28;;;;;;;5.22;2.22;;;20.50;99.90;;;;;;5028216;28;20202;-76
2023/07/17 12:11:55;;;;;;;4.60;1.80;;;20.30;99.90;;;;;;5010809;28;20223;-76
2023/07/17 12:14:22;;;;;;;4.85;2.40;;;20.10;99.90;;;;;;5027536;28;20305;-75
2023/07/17 12:16:49;;;;;;;4.47;2.22;;;19.90;99.90;;;;;;5027075;28;20251;-76
2023/07/17 12:19:16;;;;;;;5.80;2.20;;;20.00;99.90;;;;;;5021058;28;20240;-76
2023/07/17 12:21:42;;;;;;;4.25;2.17;;;20.20;99.90;;;;;;5018877;28;20233;-74
2023/07/17 12:24:10;;;;;;;5.07;2.40;;;20.30;99.90;;;;;;5026686;28;20209;-75
2023/07/17 12:26:40;;;;;;;4.53;2.20;;;20.50;99.90;;;;;;5025938;28;20214;-76
2023/07/17 12:29:09;;;;;;;3.78;2.50;;;20.70;99.90;;;;;;5027964;28;20209;-75
2023/07/17 12:31:35;;;;;;;5.03;1.90;;;20.90;99.90;;;;;;5020560;28;20233;-75
2023/07/17 12:34:03;;;;;;;3.88;1.90;;;21.10;99.90;;;;;;5023099;28;20624;-75
2023/07/17 12:36:30;;;;;;;5.65;1.80;;;21.30;99.90;;;;;;5031316;28;20206;-74
2023/07/17 12:39:11;;;;;;;4.72;2.40;;;21.60;99.90;;;;;;5030296;28;20206;-75
2023/07/17 12:41:38;;;;;;;3.70;1.88;;;21.90;99.90;;;;;;5030327;28;20309;-73
2023/07/17 12:44:05;;;;;;;3.85;1.77;;;22.10;99.90;;;;;;5012034;28;20284;-75
2023/07/17 12:46:32;;;;;;;3.30;1.73;;;22.30;99.90;;;;;;5009542;28;20555;-75
2023/07/17 12:48:59;;;;;;;4.07;2.17;;;22.50;99.90;;;;;;5008131;28;20663;-75